Aérodrome :
LOGIN :

S'inscrire | Disclaimer

   EN    FR    IT 

 










Légende :    VFR   VFR Marginal   IFR   IFR Intensif   IFR Très Intensif
Visi : 
Plafond : 
>= 8 km
>= 3000ft
5 à 8 km
1000 à 3000 ft
1500m à 5 km
500 à 1000 ft
800 à 1500m
200 à 500 ft
< 800m
< 200 ft
Symboles :   Orages  Brouillard  Fortes neiges  Fortes précipitations  Vent > 20 kt
SIGMETs :   Divers  Orages  Givrage  Turbulence  Onde Orograph.  Cendres Volcan.







- Altitude de l'aérodrome : 148 ft
- Code IATA : ALL


LIMG - Villanova D'Albenga International

DERNIER METAR :
  • 191750Z 28004KT CAVOK 16/11 Q1011

METARs EXPIRÉS :
  • 191650Z VRB03KT CAVOK 20/10 Q1011
  • 191550Z VRB03KT CAVOK 20/10 Q1011

Prévision TAF périmée.
Pas de NOTAMs connus pour ce terrain.
2 SIGMETs publiés pour la FIR Milano (LIMM) :
 
Orages noyés dans la masse
LIMM SIGMET 9 VALID 191700/192000 LIMM
LIMM MILANO FIR EMBD TS FCST WI N4625 E00927 - N4530 E00927 - N4413 E00921 - N4326 E00955 - N4343 E01034 - N4346 E01125 - N4328 E01428 - N4458 E01255 - N4527 E01300 - N4537 E01354 - N4634 E01337 - N4703 E01200 - N4625 E00927 TOP FL340 MOV SE NC=
Turbulence forte
LIMM SIGMET 10 VALID 191700/192000 LIMM
LIMM MILANO FIR SEV TURB FCST W OF LINE N4624 E00949 - N4316 E00900 FL220/370 MOV E NC=



MET'MAP, la Météo Aéronautique d'un coup d'oeil ! - Copyright ORBIFLY Décembre 2007 - Disclaimer

ORBIFLY MET'MAP TEAM :

Programmation & Développement : Alexandra Zaïnal
Conception & Développement : Baudouin d'Aumeries
Co-Programmation & Développement : Marc-Olivier Méhu
Soutien technique & logistique : Manuel Goepfert

Contact : metmap@orbifly.com




SOURCES & CREDITS :

   NOAA